Savanna, IA

9:03 AM CDT on May 26, 2017 (GMT -0500)
Tri-Township

Weather History for KSFY - December, 2011

Change the Weather History Date:

Sunday, December 4, 2011

  Actual Average (KCWI) Record (KCWI)
Temperature  
Mean Temperature 42 °F -  
Max Temperature 51 °F 35 °F 69 °F (1998)
Min Temperature 33 °F 21 °F -4 °F (1991)
Degree Days  
Heating Degree Days 23    
Moisture  
Dew Point 35 °F    
Average Humidity 86    
Maximum Humidity 95    
Minimum Humidity 78    
Precipitation  
Precipitation 0.11 in - - ()
Sea Level Pressure  
Sea Level Pressure 30.04 in    
Wind  
Wind Speed 12 mph (West)    
Max Wind Speed 22 mph    
Max Gust Speed 29 mph    
Visibility 9 miles    
Events Rain    
Averages and records for this station are not official NWS values.
T = Trace of Precipitation, MM = Missing Value Source: NWS Daily Summary

Daily Weather History Graph

Daily Weather History Graph

Search for Another Location

Airport or City:

Trip Planner

Search our weather history database for the weather conditions in past years. The results will help you decide how hot, cold, wet, or windy it might be!

Date:

Astronomy

Dec. 04, 2011 Rise Set
Actual Time 7:11 AM CST 4:29 PM CST
Civil Twilight 6:40 AM CST 5:00 PM CST
Nautical Twilight 6:05 AM CST 5:35 PM CST
Astronomical Twilight 5:31 AM CST 6:09 PM CST
Moon 1:03 PM CST (12/4) 1:32 AM CST (12/4)
Length of Visible Light 10h 19m
Length of Day
9h 17m
Waxing Gibbous, 72% of the Moon is Illuminated
Dec 4
Waxing Gibbous
Dec 10
Full
Dec 17
Last Quarter
Dec 24
New
Jan 1
First Quarter

Hourly Weather History & Observations

Time (CST) Temp. Windchill Dew Point Humidity Pressure Visibility Wind Dir Wind Speed Gust Speed Precip Events Conditions
12:15 AM 51.3 °F - 47.8 °F 88% 29.78 in 10.0 mi South 19.6 mph 28.8 mph N/A   Overcast
12:35 AM 51.4 °F - 48.2 °F 89% 29.78 in 10.0 mi South 17.3 mph - N/A   Overcast
12:55 AM 51.8 °F - 48.6 °F 89% 29.77 in 7.0 mi South 21.9 mph 27.6 mph N/A   Overcast
1:15 AM 51.8 °F - 48.4 °F 88% 29.76 in 10.0 mi South 20.7 mph 25.3 mph N/A   Overcast
1:35 AM 51.4 °F - 48.4 °F 89% 29.77 in 7.0 mi South 19.6 mph 25.3 mph N/A Rain Rain
1:55 AM 51.8 °F - 48.7 °F 89% 29.78 in 7.0 mi South 18.4 mph 26.5 mph N/A Rain Light Rain
2:35 AM 50.4 °F - 48.4 °F 93% 29.79 in 3.0 mi SSW 11.5 mph - 0.04 in Rain Heavy Rain
2:55 AM 50.5 °F - 49.1 °F 95% 29.80 in 4.0 mi SSW 8.1 mph - 0.10 in Rain Light Rain
3:15 AM 50.9 °F - 49.1 °F 94% 29.81 in 10.0 mi West 6.9 mph - 0.01 in   Overcast
3:35 AM 50.0 °F - 46.4 °F 87% 29.82 in 10.0 mi WSW 10.4 mph - 0.01 in   Overcast
3:55 AM 48.6 °F - 45.5 °F 89% 29.83 in 10.0 mi WSW 10.4 mph - 0.01 in   Overcast
4:15 AM 45.1 °F 39.5 °F 42.8 °F 91% 29.85 in 7.0 mi West 11.5 mph 17.3 mph N/A   Overcast
4:35 AM 42.3 °F 36.3 °F 40.1 °F 92% 29.86 in 4.0 mi West 10.4 mph 17.3 mph N/A   Overcast
4:55 AM 41.4 °F 36.2 °F 39.4 °F 93% 29.87 in 7.0 mi West 8.1 mph - N/A   Overcast
5:15 AM 40.6 °F 35.4 °F 38.3 °F 91% 29.88 in 7.0 mi West 8.1 mph - N/A   Overcast
5:35 AM 40.1 °F 35.3 °F 37.8 °F 91% 29.90 in 7.0 mi West 6.9 mph - N/A   Overcast
6:15 AM 38.5 °F 31.6 °F 36.3 °F 92% 29.89 in 10.0 mi NW 10.4 mph - N/A   Overcast
6:35 AM 37.9 °F 31.5 °F 35.1 °F 89% 29.93 in 10.0 mi WNW 9.2 mph - N/A   Overcast
6:55 AM 37.8 °F 30.2 °F 34.5 °F 88% 29.94 in 10.0 mi WNW 11.5 mph - N/A   Overcast
7:15 AM 37.8 °F 30.7 °F 34.2 °F 87% 29.97 in 10.0 mi WNW 10.4 mph - N/A   Overcast
7:35 AM 37.6 °F 30.0 °F 34.0 °F 87% 29.98 in 7.0 mi NW 11.5 mph 16.1 mph N/A   Overcast
7:55 AM 37.4 °F 30.3 °F 33.8 °F 87% 29.99 in 7.0 mi WNW 10.4 mph - N/A   Overcast
8:15 AM 37.2 °F 30.0 °F 33.3 °F 86% 30.00 in 7.0 mi WNW 10.4 mph 17.3 mph N/A   Overcast
8:35 AM 36.9 °F 28.7 °F 33.1 °F 86% 30.01 in 5.0 mi WNW 12.7 mph 18.4 mph N/A   Overcast
8:55 AM 36.5 °F 29.7 °F 32.7 °F 86% 30.04 in 4.0 mi West 9.2 mph 16.1 mph N/A   Overcast
9:15 AM 36.1 °F 28.2 °F 32.0 °F 85% 30.05 in 5.0 mi WNW 11.5 mph - N/A   Overcast
9:35 AM 36.3 °F 28.4 °F 32.0 °F 84% 30.05 in 5.0 mi WNW 11.5 mph - N/A   Overcast
10:15 AM 36.5 °F 30.3 °F 32.0 °F 84% 30.07 in 5.0 mi NW 8.1 mph - N/A   Overcast
10:35 AM 36.1 °F 28.7 °F 31.8 °F 84% 30.08 in 7.0 mi NW 10.4 mph - N/A   Overcast
10:55 AM 35.8 °F 26.9 °F 31.5 °F 84% 30.08 in 7.0 mi WNW 13.8 mph 17.3 mph N/A   Overcast
11:15 AM 35.8 °F 27.3 °F 31.3 °F 84% 30.09 in 10.0 mi West 12.7 mph - N/A   Overcast
11:35 AM 35.8 °F 28.8 °F 31.1 °F 83% 30.10 in 10.0 mi NW 9.2 mph - N/A   Overcast
11:55 AM 35.6 °F 29.2 °F 31.1 °F 84% 30.10 in 10.0 mi WNW 8.1 mph - N/A   Overcast
12:15 PM 35.2 °F 28.1 °F 30.9 °F 84% 30.09 in 10.0 mi WNW 9.2 mph - N/A   Overcast
12:35 PM 34.9 °F 27.1 °F 30.6 °F 84% 30.09 in 10.0 mi WNW 10.4 mph - N/A   Overcast
12:55 PM 35.1 °F 26.9 °F 30.7 °F 84% 30.09 in 10.0 mi WNW 11.5 mph - N/A   Overcast
1:15 PM 34.7 °F 26.9 °F 30.9 °F 86% 30.10 in 10.0 mi WNW 10.4 mph - N/A   Overcast
1:35 PM 34.7 °F 29.6 °F 30.9 °F 86% 30.11 in 10.0 mi West 5.8 mph - N/A   Overcast
1:55 PM 34.7 °F 28.1 °F 30.4 °F 84% 30.12 in 10.0 mi WNW 8.1 mph - N/A   Overcast
2:15 PM 34.3 °F 27.7 °F 30.2 °F 85% 30.13 in 10.0 mi WNW 8.1 mph - N/A   Overcast
2:35 PM 34.2 °F 28.2 °F 30.7 °F 87% 30.12 in 10.0 mi West 6.9 mph - N/A   Overcast
2:55 PM 34.2 °F 27.5 °F 30.4 °F 86% 30.13 in 7.0 mi West 8.1 mph - N/A   Overcast
3:15 PM 33.8 °F 27.0 °F 29.8 °F 85% 30.14 in 10.0 mi West 8.1 mph - N/A   Overcast
3:35 PM 33.8 °F 29.6 °F 30.0 °F 86% 30.17 in 10.0 mi West 4.6 mph - N/A   Overcast
3:55 PM 33.8 °F 27.0 °F 29.5 °F 84% 30.17 in 10.0 mi West 8.1 mph - N/A   Overcast
4:15 PM 33.4 °F 27.3 °F 28.8 °F 83% 30.19 in 10.0 mi WNW 6.9 mph - N/A   Overcast
4:35 PM 33.4 °F 26.6 °F 28.4 °F 82% 30.20 in 10.0 mi West 8.1 mph - N/A   Overcast
4:55 PM 33.8 °F 27.7 °F 28.4 °F 81% 30.20 in 10.0 mi WNW 6.9 mph - N/A   Overcast
5:15 PM 33.8 °F 27.0 °F 28.4 °F 81% 30.21 in 10.0 mi West 8.1 mph - N/A   Overcast
5:35 PM 33.8 °F 28.6 °F 27.9 °F 79% 30.22 in 10.0 mi West 5.8 mph - N/A   Overcast
6:15 PM 34.0 °F 29.8 °F 27.9 °F 78% 30.23 in 10.0 mi NW 4.6 mph - N/A   Overcast
6:35 PM 34.2 °F 30.0 °F 28.4 °F 79% 30.24 in 10.0 mi West 4.6 mph - N/A   Overcast
6:55 PM 34.2 °F 31.2 °F 28.0 °F 78% 30.24 in 10.0 mi West 3.5 mph - N/A   Overcast
7:15 PM 34.2 °F 28.2 °F 28.0 °F 78% 30.24 in 10.0 mi West 6.9 mph - N/A   Overcast
7:35 PM 34.2 °F 29.0 °F 28.0 °F 78% 30.24 in 10.0 mi West 5.8 mph - N/A   Overcast
7:55 PM 34.0 °F 28.8 °F 28.4 °F 80% 30.25 in 10.0 mi West 5.8 mph - N/A   Overcast
8:15 PM 33.8 °F 29.6 °F 29.3 °F 84% 30.26 in 10.0 mi WNW 4.6 mph - N/A   Overcast
8:35 PM 33.8 °F 28.6 °F 28.4 °F 81% 30.26 in 10.0 mi West 5.8 mph - N/A   Overcast
8:55 PM 33.8 °F 27.7 °F 28.6 °F 81% 30.27 in 10.0 mi West 6.9 mph - N/A   Overcast
9:15 PM 33.4 °F 29.1 °F 27.5 °F 79% 30.27 in 10.0 mi WNW 4.6 mph - N/A   Overcast
9:35 PM 33.3 °F 27.1 °F 26.4 °F 76% 30.26 in 10.0 mi WNW 6.9 mph - N/A   Overcast
9:55 PM 33.1 °F 26.9 °F 26.2 °F 76% 30.27 in 10.0 mi WNW 6.9 mph - N/A   Overcast
10:15 PM 33.1 °F 26.9 °F 26.2 °F 76% 30.27 in 10.0 mi WNW 6.9 mph - N/A   Overcast
10:35 PM 32.9 °F 26.7 °F 26.6 °F 78% 30.28 in 10.0 mi WNW 6.9 mph - N/A   Overcast
10:55 PM 32.9 °F 25.9 °F 26.6 °F 78% 30.28 in 10.0 mi WNW 8.1 mph - N/A   Overcast
11:15 PM 32.5 °F 25.5 °F 26.2 °F 78% 30.28 in 10.0 mi West 8.1 mph - N/A   Overcast
11:35 PM 32.4 °F 26.0 °F 25.9 °F 77% 30.27 in 10.0 mi WNW 6.9 mph - N/A   Overcast
11:55 PM 32.4 °F 26.0 °F 26.4 °F 79% 30.27 in 10.0 mi WNW 6.9 mph - N/A   Overcast